createdAt,value
2022-09-21T00:01:36.619Z,74.82
2022-09-21T00:04:10.771Z,75.04
2022-09-21T00:06:43.943Z,75.22
2022-09-21T00:09:17.560Z,75.33
2022-09-21T00:11:53.281Z,75.36
2022-09-21T00:14:25.539Z,75.42
2022-09-21T00:16:58.722Z,75.45
2022-09-21T00:19:31.881Z,75.54
2022-09-21T00:22:05.045Z,75.55
2022-09-21T00:24:38.288Z,75.57
2022-09-21T00:27:11.378Z,75.56
2022-09-21T00:29:44.666Z,75.51
2022-09-21T00:32:17.743Z,75.56
2022-09-21T00:34:51.555Z,75.63
2022-09-21T00:37:25.201Z,75.64
2022-09-21T00:39:58.530Z,75.69
2022-09-21T00:42:34.879Z,75.84
2022-09-21T00:45:12.465Z,76.00
2022-09-21T00:47:47.319Z,76.11
2022-09-21T00:50:23.084Z,76.20
2022-09-21T00:52:59.472Z,76.21
2022-09-21T00:55:37.027Z,76.21
2022-09-21T00:58:12.794Z,76.21
2022-09-21T01:00:46.203Z,76.14
2022-09-21T01:03:19.480Z,76.03
2022-09-21T01:05:52.664Z,76.01
2022-09-21T01:08:27.505Z,76.05
2022-09-21T01:11:13.339Z,76.08
2022-09-21T01:13:51.280Z,76.11
2022-09-21T01:16:24.423Z,76.06
2022-09-21T01:19:01.295Z,75.69
2022-09-21T01:21:37.381Z,75.59
2022-09-21T01:24:21.635Z,75.68
2022-09-21T01:27:23.286Z,75.77
2022-09-21T01:30:00.019Z,75.79
2022-09-21T01:32:37.072Z,75.83
2022-09-21T01:35:14.206Z,75.90
2022-09-21T01:37:51.099Z,75.91
2022-09-21T01:40:26.654Z,75.96
2022-09-21T01:43:01.564Z,75.99
2022-09-21T01:45:36.914Z,76.01
2022-09-21T01:48:11.303Z,76.06
2022-09-21T01:50:47.207Z,76.12
2022-09-21T01:53:23.150Z,76.18
2022-09-21T01:55:59.130Z,76.19
2022-09-21T01:58:35.496Z,76.21
2022-09-21T02:01:11.229Z,76.18
2022-09-21T02:03:46.961Z,76.15
2022-09-21T02:06:21.228Z,76.10
2022-09-21T02:08:54.257Z,76.05
2022-09-21T02:11:27.187Z,76.06
2022-09-21T02:14:00.046Z,76.06
2022-09-21T02:16:40.754Z,75.98
2022-09-21T02:19:17.835Z,75.93
2022-09-21T02:21:59.808Z,75.91
2022-09-21T02:24:39.277Z,75.79
2022-09-21T02:27:17.081Z,75.73
2022-09-21T02:29:53.803Z,75.72
2022-09-21T02:32:32.566Z,75.74
2022-09-21T02:35:09.505Z,75.81
2022-09-21T02:37:46.155Z,75.85
2022-09-21T02:40:23.975Z,75.86
2022-09-21T02:42:59.925Z,75.81
2022-09-21T02:45:36.020Z,75.80
2022-09-21T02:48:12.414Z,75.80
2022-09-21T02:50:48.624Z,75.84
2022-09-21T02:53:24.624Z,75.85
2022-09-21T02:56:02.491Z,75.79
2022-09-21T02:58:35.455Z,75.84
2022-09-21T03:01:10.318Z,75.62
2022-09-21T03:03:43.948Z,75.60
2022-09-21T03:06:17.190Z,75.70
2022-09-21T03:08:50.207Z,75.79
2022-09-21T03:11:23.368Z,75.86
2022-09-21T03:13:56.315Z,75.96
2022-09-21T03:16:29.217Z,75.99
2022-09-21T03:19:02.050Z,76.03
2022-09-21T03:21:35.083Z,75.98
2022-09-21T03:24:08.312Z,76.03
2022-09-21T03:26:41.085Z,75.98
2022-09-21T03:29:15.046Z,75.96
2022-09-21T03:31:47.830Z,75.96
2022-09-21T03:34:20.843Z,75.98
2022-09-21T03:36:54.025Z,76.00
2022-09-21T03:39:26.822Z,75.99
2022-09-21T03:42:00.475Z,76.04
2022-09-21T03:44:33.400Z,76.12
2022-09-21T03:47:07.363Z,76.20
2022-09-21T03:49:40.215Z,76.30
2022-09-21T03:52:13.072Z,76.30
2022-09-21T03:54:45.936Z,76.26
2022-09-21T03:57:19.238Z,76.25
2022-09-21T03:59:52.338Z,76.15
2022-09-21T04:02:25.158Z,76.11
2022-09-21T04:04:58.160Z,76.05
2022-09-21T04:07:34.611Z,75.97
2022-09-21T04:10:10.737Z,75.91
2022-09-21T04:12:44.484Z,75.88
2022-09-21T04:15:19.929Z,75.96
2022-09-21T04:17:55.525Z,75.96
2022-09-21T04:20:28.703Z,75.89
2022-09-21T04:23:01.631Z,75.89
2022-09-21T04:25:34.649Z,75.77
2022-09-21T04:28:07.789Z,75.71
2022-09-21T04:30:41.853Z,75.60
2022-09-21T04:33:15.098Z,75.50
2022-09-21T04:36:11.722Z,75.52
2022-09-21T04:38:46.752Z,75.45
2022-09-21T04:41:20.160Z,75.46
2022-09-21T04:43:52.940Z,75.41
2022-09-21T04:46:25.853Z,75.30
2022-09-21T04:48:59.090Z,75.35
2022-09-21T04:51:32.376Z,75.32
2022-09-21T04:54:06.790Z,75.29
2022-09-21T04:56:39.780Z,75.14
2022-09-21T04:59:12.975Z,75.03
2022-09-21T05:01:46.086Z,74.98
2022-09-21T05:04:19.533Z,74.95
2022-09-21T05:06:52.635Z,74.92
2022-09-21T05:09:44.109Z,75.02
2022-09-21T05:12:17.142Z,74.95
2022-09-21T05:14:51.770Z,74.87
2022-09-21T05:17:25.461Z,74.73
2022-09-21T05:19:58.743Z,74.58
2022-09-21T05:22:32.073Z,74.72
2022-09-21T05:25:05.458Z,74.75
2022-09-21T05:27:38.538Z,74.69
2022-09-21T05:30:14.634Z,74.66
2022-09-21T05:32:51.872Z,74.71
2022-09-21T05:35:29.547Z,74.67
2022-09-21T05:38:07.436Z,74.69
2022-09-21T05:40:39.615Z,74.69
2022-09-21T05:43:13.525Z,74.14
2022-09-21T05:45:49.236Z,73.97
2022-09-21T05:48:27.688Z,73.94
2022-09-21T05:51:03.777Z,73.79
2022-09-21T05:53:50.507Z,73.51
2022-09-21T05:56:33.824Z,73.61
2022-09-21T05:59:12.701Z,73.19
2022-09-21T06:01:50.179Z,72.97
2022-09-21T06:04:24.453Z,72.76
2022-09-21T06:06:57.630Z,72.70
2022-09-21T06:09:30.761Z,72.46
2022-09-21T06:12:04.603Z,71.99
2022-09-21T06:14:37.708Z,71.52
2022-09-21T06:17:10.844Z,71.58
2022-09-21T06:19:44.034Z,71.44
2022-09-21T06:22:17.127Z,70.91
2022-09-21T06:24:50.272Z,70.00
2022-09-21T06:27:23.503Z,68.98
2022-09-21T06:29:56.572Z,67.87
2022-09-21T06:32:29.705Z,66.73
2022-09-21T06:35:05.047Z,65.63
2022-09-21T06:37:38.425Z,64.84
2022-09-21T06:40:12.519Z,63.54
2022-09-21T06:42:45.554Z,62.30
2022-09-21T06:45:18.566Z,62.00
2022-09-21T06:47:51.504Z,61.35
2022-09-21T06:50:24.628Z,61.01
2022-09-21T06:52:59.027Z,59.86
2022-09-21T06:55:32.662Z,58.27
2022-09-21T06:58:06.142Z,57.58
2022-09-21T07:00:39.007Z,57.11
2022-09-21T07:03:15.313Z,56.33
2022-09-21T07:05:49.913Z,55.45
2022-09-21T07:11:02.756Z,52.90
2022-09-21T07:13:36.336Z,52.84
2022-09-21T07:16:10.759Z,52.19
2022-09-21T07:18:44.570Z,51.93
2022-09-21T07:21:17.591Z,51.92
2022-09-21T07:23:50.503Z,51.03
2022-09-21T07:26:23.395Z,49.77
2022-09-21T07:28:56.572Z,49.23
2022-09-21T07:31:29.790Z,48.61
2022-09-21T07:34:02.605Z,47.92
2022-09-21T07:36:36.109Z,46.65
2022-09-21T07:39:12.601Z,47.82
2022-09-21T07:41:45.790Z,48.23
2022-09-21T07:44:20.377Z,48.64
2022-09-21T07:46:53.450Z,49.24
2022-09-21T07:49:26.304Z,49.94
2022-09-21T07:52:03.936Z,50.61
2022-09-21T07:54:34.482Z,50.96
2022-09-21T07:57:26.651Z,51.22
2022-09-21T07:59:59.530Z,51.23
2022-09-21T08:02:34.576Z,51.29
2022-09-21T08:05:08.531Z,51.14
2022-09-21T08:07:41.464Z,51.00
2022-09-21T08:10:14.497Z,50.33
2022-09-21T08:12:47.405Z,49.93
2022-09-21T08:15:44.115Z,49.72
2022-09-21T08:17:55.042Z,49.90
2022-09-21T08:20:29.209Z,49.76
2022-09-21T08:23:02.555Z,49.46
2022-09-21T08:25:35.492Z,49.81
2022-09-21T08:28:09.994Z,50.78
2022-09-21T08:30:43.520Z,50.93
2022-09-21T08:33:16.521Z,51.05
2022-09-21T08:35:55.768Z,50.36
2022-09-21T08:38:30.343Z,49.99
2022-09-21T08:41:05.143Z,49.51
2022-09-21T08:43:40.654Z,49.13
2022-09-21T08:46:16.908Z,49.24
2022-09-21T08:48:54.437Z,49.79
2022-09-21T08:51:30.706Z,50.21
2022-09-21T08:54:07.610Z,50.25
2022-09-21T08:57:03.515Z,50.46
2022-09-21T08:59:16.831Z,50.17
2022-09-21T09:01:58.502Z,50.32
2022-09-21T09:04:52.718Z,50.21
2022-09-21T09:07:36.022Z,49.76
2022-09-21T09:10:20.817Z,49.79
2022-09-21T09:13:00.520Z,49.49
2022-09-21T09:15:44.160Z,49.60
2022-09-21T09:18:21.928Z,49.49
2022-09-21T09:20:56.588Z,49.24
2022-09-21T09:23:31.948Z,49.64
2022-09-21T09:26:09.043Z,48.67
2022-09-21T09:28:48.153Z,48.22
2022-09-21T09:31:24.849Z,47.56
2022-09-21T09:34:01.538Z,46.85
2022-09-21T09:36:57.453Z,46.47
2022-09-21T09:39:16.084Z,45.14
2022-09-21T09:42:22.140Z,44.05
2022-09-21T09:45:24.534Z,43.82
2022-09-21T09:48:03.361Z,44.46
2022-09-21T09:50:39.203Z,44.62
2022-09-21T09:53:15.341Z,44.86
2022-09-21T09:55:50.903Z,45.37
2022-09-21T09:58:26.787Z,45.76
2022-09-21T10:00:59.736Z,45.57
2022-09-21T10:03:32.801Z,45.55
2022-09-21T10:06:06.065Z,46.13
2022-09-21T10:08:47.783Z,46.20
2022-09-21T10:11:21.206Z,46.04
2022-09-21T10:13:55.637Z,45.33
2022-09-21T10:16:28.726Z,45.07
2022-09-21T10:19:02.622Z,44.16
2022-09-21T10:21:39.376Z,42.91
2022-09-21T10:24:19.193Z,41.68
2022-09-21T10:26:54.776Z,41.08
2022-09-21T10:29:35.364Z,40.24
2022-09-21T10:32:21.812Z,39.29
2022-09-21T10:35:23.411Z,38.92
2022-09-21T10:38:16.260Z,38.80
2022-09-21T10:40:49.080Z,36.81
2022-09-21T10:43:31.896Z,36.47
2022-09-21T10:46:05.348Z,35.58
2022-09-21T10:48:38.771Z,36.32
2022-09-21T10:51:21.979Z,37.08
2022-09-21T10:53:55.411Z,37.35
2022-09-21T10:56:28.368Z,37.92
2022-09-21T10:59:16.286Z,38.24
2022-09-21T11:01:51.223Z,38.21
2022-09-21T11:04:36.177Z,38.14
2022-09-21T11:07:16.561Z,37.27
2022-09-21T11:09:54.270Z,36.22
2022-09-21T11:12:42.938Z,34.97
2022-09-21T11:15:23.757Z,34.49
2022-09-21T11:17:59.800Z,35.28
2022-09-21T11:20:37.285Z,36.22
2022-09-21T11:23:17.037Z,37.72
2022-09-21T11:25:53.402Z,38.61
2022-09-21T11:28:29.979Z,39.40
2022-09-21T11:31:14.850Z,40.41
2022-09-21T11:33:59.152Z,41.31
2022-09-21T11:36:36.728Z,41.45
2022-09-21T11:39:13.097Z,41.97
2022-09-21T11:41:57.455Z,42.26
2022-09-21T11:44:38.181Z,42.23
2022-09-21T11:47:17.981Z,42.72
2022-09-21T11:50:19.435Z,42.96
2022-09-21T11:52:42.290Z,43.26
2022-09-21T11:55:44.614Z,43.90
2022-09-21T11:58:22.561Z,44.29
2022-09-21T12:01:01.712Z,44.89
2022-09-21T12:04:05.296Z,45.17
2022-09-21T12:06:49.590Z,45.72
2022-09-21T12:09:46.205Z,46.10
2022-09-21T12:12:23.466Z,46.32
2022-09-21T12:15:01.382Z,46.51
2022-09-21T12:17:41.160Z,46.50
2022-09-21T12:20:18.039Z,46.22
2022-09-21T12:22:54.222Z,46.20
2022-09-21T12:25:31.721Z,46.12
2022-09-21T12:28:13.977Z,46.35
2022-09-21T12:30:51.391Z,46.45
2022-09-21T12:33:27.232Z,46.69
2022-09-21T12:36:06.612Z,46.93
2022-09-21T12:38:42.898Z,46.99
2022-09-21T12:41:18.855Z,47.26
2022-09-21T12:43:55.283Z,47.39
2022-09-21T12:46:33.690Z,47.61
2022-09-21T12:49:14.367Z,47.71
2022-09-21T12:51:50.441Z,47.90
2022-09-21T12:54:28.137Z,48.16
2022-09-21T12:57:23.607Z,48.37
2022-09-21T12:59:43.546Z,48.80
2022-09-21T13:02:21.571Z,49.53
2022-09-21T13:05:02.694Z,49.49
2022-09-21T13:07:57.167Z,49.43
2022-09-21T13:10:41.816Z,49.33
2022-09-21T13:13:29.196Z,49.25
2022-09-21T13:16:04.376Z,49.68
2022-09-21T13:18:39.916Z,49.83
2022-09-21T13:21:22.075Z,50.07
2022-09-21T13:23:58.410Z,50.26
2022-09-21T13:26:40.785Z,50.40
2022-09-21T13:29:33.488Z,50.84
2022-09-21T13:32:10.977Z,50.83
2022-09-21T13:34:45.512Z,50.42
2022-09-21T13:37:30.981Z,50.37
2022-09-21T13:40:46.299Z,50.53
2022-09-21T13:43:29.737Z,50.61
2022-09-21T13:46:03.248Z,50.81
2022-09-21T13:48:36.383Z,50.87
2022-09-21T13:51:14.441Z,51.00
2022-09-21T13:53:47.421Z,51.45
2022-09-21T13:56:23.992Z,51.73
2022-09-21T13:58:59.549Z,51.93
2022-09-21T14:01:52.725Z,52.18
2022-09-21T14:04:23.219Z,52.20
2022-09-21T14:06:58.646Z,52.36
2022-09-21T14:09:34.453Z,52.70
2022-09-21T14:12:10.808Z,52.64
2022-09-21T14:14:47.349Z,53.08
2022-09-21T14:17:39.772Z,53.09
2022-09-21T14:20:32.682Z,53.16
2022-09-21T14:23:29.506Z,53.00
2022-09-21T14:26:03.640Z,53.00
2022-09-21T14:28:39.665Z,53.05
2022-09-21T14:31:20.866Z,53.33
2022-09-21T14:33:57.832Z,53.56
2022-09-21T14:36:36.773Z,53.62
2022-09-21T14:39:17.405Z,53.77
2022-09-21T14:41:53.598Z,54.14
2022-09-21T14:44:30.042Z,54.52
2022-09-21T14:47:25.524Z,54.94
2022-09-21T14:50:23.171Z,55.21
2022-09-21T14:53:02.773Z,55.42
2022-09-21T14:55:43.534Z,54.42
2022-09-21T14:58:24.803Z,55.34
2022-09-21T15:00:59.812Z,55.56
2022-09-21T15:03:44.660Z,55.92
2022-09-21T15:06:40.681Z,56.41
2022-09-21T15:12:26.073Z,56.35
2022-09-21T15:15:03.663Z,56.97
2022-09-21T15:17:36.816Z,57.32
2022-09-21T15:20:21.786Z,57.65
2022-09-21T15:22:57.622Z,57.92
2022-09-21T15:25:33.355Z,58.17
2022-09-21T15:28:06.343Z,58.36
2022-09-21T15:30:45.206Z,58.31
2022-09-21T15:33:22.171Z,58.41
2022-09-21T15:35:54.876Z,58.59
2022-09-21T15:38:32.579Z,58.92
2022-09-21T15:41:11.504Z,59.54
2022-09-21T15:43:43.125Z,59.76
2022-09-21T15:46:20.347Z,60.20
2022-09-21T15:48:53.263Z,60.47
2022-09-21T15:51:30.439Z,60.47
2022-09-21T15:54:06.642Z,60.83
2022-09-21T15:56:41.341Z,61.05
2022-09-21T15:59:18.155Z,61.15
2022-09-21T16:01:53.584Z,61.38
2022-09-21T16:04:29.416Z,61.62
2022-09-21T16:07:04.602Z,61.40
2022-09-21T16:09:43.493Z,61.50
2022-09-21T16:12:44.248Z,62.03
2022-09-21T16:15:30.213Z,62.32
2022-09-21T16:18:05.046Z,62.62
2022-09-21T16:20:47.487Z,63.07
2022-09-21T16:23:24.194Z,63.46
2022-09-21T16:26:01.013Z,63.76
2022-09-21T16:28:39.764Z,64.04
2022-09-21T16:31:37.445Z,63.84
2022-09-21T16:34:35.708Z,63.67
2022-09-21T16:37:26.273Z,63.48
2022-09-21T16:40:02.154Z,63.33
2022-09-21T16:42:36.233Z,64.11
2022-09-21T16:45:16.129Z,64.21
2022-09-21T16:47:49.287Z,64.40
2022-09-21T16:50:22.256Z,64.53
2022-09-21T16:52:55.371Z,64.98
2022-09-21T16:55:29.266Z,65.37
2022-09-21T16:58:02.405Z,65.67
2022-09-21T17:00:38.311Z,65.80
2022-09-21T17:03:12.988Z,65.56
2022-09-21T17:05:46.067Z,65.62
2022-09-21T17:08:19.451Z,65.64
2022-09-21T17:10:53.067Z,65.64
2022-09-21T17:13:26.221Z,65.76
2022-09-21T17:16:00.186Z,66.07
2022-09-21T17:18:33.763Z,65.65
2022-09-21T17:21:08.816Z,65.76
2022-09-21T17:23:42.316Z,65.77
2022-09-21T17:26:19.413Z,65.36
2022-09-21T17:28:53.665Z,65.21
2022-09-21T17:31:28.309Z,65.18
2022-09-21T17:34:08.226Z,65.21
2022-09-21T17:36:41.395Z,65.19
2022-09-21T17:39:15.014Z,65.17
2022-09-21T17:41:55.137Z,64.98
2022-09-21T17:44:49.464Z,65.38
2022-09-21T17:47:29.673Z,65.45
2022-09-21T17:50:07.336Z,65.32
2022-09-21T17:52:59.326Z,65.18
2022-09-21T17:55:35.294Z,65.17
2022-09-21T17:58:31.412Z,65.14
2022-09-21T18:01:08.054Z,65.48
2022-09-21T18:03:44.605Z,65.37
2022-09-21T18:06:19.103Z,65.36
2022-09-21T18:08:54.351Z,65.34
2022-09-21T18:12:16.132Z,65.62
2022-09-21T18:14:54.290Z,65.50
2022-09-21T18:17:43.252Z,65.06
2022-09-21T18:20:28.769Z,65.08
2022-09-21T18:23:06.281Z,65.06
2022-09-21T18:25:48.499Z,65.24
2022-09-21T18:28:24.591Z,65.37
2022-09-21T18:31:03.051Z,65.60
2022-09-21T18:33:43.444Z,65.65
2022-09-21T18:36:28.467Z,65.50
2022-09-21T18:39:09.131Z,65.29
2022-09-21T18:41:46.167Z,65.26
2022-09-21T18:44:23.294Z,65.14
2022-09-21T18:47:02.534Z,64.97
2022-09-21T18:49:51.507Z,64.92
2022-09-21T18:52:34.160Z,64.85
2022-09-21T18:55:18.049Z,64.74
2022-09-21T18:57:52.372Z,65.05
2022-09-21T19:00:29.808Z,65.29
2022-09-21T19:03:16.927Z,65.61
2022-09-21T19:05:41.607Z,65.86
2022-09-21T19:08:17.521Z,65.89
2022-09-21T19:13:43.716Z,66.30
2022-09-21T19:16:23.081Z,66.17
2022-09-21T19:19:03.149Z,66.27
2022-09-21T19:21:40.704Z,66.61
2022-09-21T19:24:18.923Z,66.83
2022-09-21T19:26:58.096Z,66.77
2022-09-21T19:29:53.086Z,66.79
2022-09-21T19:32:32.890Z,66.87
2022-09-21T19:35:21.623Z,66.95
2022-09-21T19:37:56.237Z,66.88
2022-09-21T19:40:32.481Z,67.04
2022-09-21T19:43:22.078Z,67.31
2022-09-21T19:46:03.937Z,67.64
2022-09-21T19:48:43.281Z,67.75
2022-09-21T19:51:20.782Z,67.77
2022-09-21T19:54:14.918Z,68.25
2022-09-21T19:57:08.804Z,68.45
2022-09-21T19:59:46.079Z,68.41
2022-09-21T20:02:23.859Z,68.43
2022-09-21T20:04:59.309Z,68.39
2022-09-21T20:07:42.765Z,68.19
2022-09-21T20:10:26.849Z,68.26
2022-09-21T20:13:04.907Z,68.26
2022-09-21T20:15:40.668Z,68.44
2022-09-21T20:18:19.861Z,68.53
2022-09-21T20:20:53.384Z,68.77
2022-09-21T20:23:27.276Z,68.62
2022-09-21T20:26:03.415Z,68.73
2022-09-21T20:28:37.447Z,68.94
2022-09-21T20:31:12.337Z,69.06
2022-09-21T20:33:45.265Z,68.92
2022-09-21T20:36:18.294Z,69.00
2022-09-21T20:38:51.277Z,69.02
2022-09-21T20:41:25.212Z,69.14
2022-09-21T20:43:59.257Z,69.24
2022-09-21T20:46:32.970Z,69.41
2022-09-21T20:49:06.864Z,69.50
2022-09-21T20:51:40.160Z,69.71
2022-09-21T20:54:13.091Z,69.85
2022-09-21T20:56:47.098Z,70.24
2022-09-21T20:59:20.511Z,70.18
2022-09-21T21:01:59.325Z,70.11
2022-09-21T21:04:33.147Z,70.06
2022-09-21T21:07:06.099Z,70.08
2022-09-21T21:09:39.682Z,70.00
2022-09-21T21:12:13.161Z,69.83
2022-09-21T21:14:46.194Z,69.78
2022-09-21T21:17:18.983Z,69.74
2022-09-21T21:19:51.925Z,69.80
2022-09-21T21:22:24.731Z,69.97
2022-09-21T21:24:57.685Z,70.04
2022-09-21T21:27:31.012Z,70.22
2022-09-21T21:30:04.804Z,70.50
2022-09-21T21:32:38.246Z,70.50
2022-09-21T21:35:12.060Z,70.42
2022-09-21T21:37:45.560Z,70.58
2022-09-21T21:40:18.917Z,70.76
2022-09-21T21:42:51.946Z,70.75
2022-09-21T21:45:25.031Z,70.75
2022-09-21T21:47:58.051Z,70.84
2022-09-21T21:50:31.826Z,70.81
2022-09-21T21:53:04.845Z,70.91
2022-09-21T21:55:37.901Z,70.86
2022-09-21T21:58:12.054Z,71.01
2022-09-21T22:00:45.963Z,71.00
2022-09-21T22:03:19.010Z,70.95
2022-09-21T22:05:57.218Z,70.84
2022-09-21T22:08:30.439Z,70.88
2022-09-21T22:11:04.103Z,70.91
2022-09-21T22:13:38.899Z,70.86
2022-09-21T22:16:14.564Z,70.72
2022-09-21T22:18:48.127Z,70.73
2022-09-21T22:21:23.730Z,70.79
2022-09-21T22:23:58.993Z,70.92
2022-09-21T22:26:34.393Z,70.99
2022-09-21T22:29:09.585Z,71.05
2022-09-21T22:31:44.583Z,71.27
2022-09-21T22:34:17.744Z,71.36
2022-09-21T22:36:51.103Z,71.39
2022-09-21T22:39:24.393Z,71.48
2022-09-21T22:41:57.604Z,71.55
2022-09-21T22:44:30.354Z,71.51
2022-09-21T22:47:03.262Z,71.54
2022-09-21T22:49:35.984Z,71.42
2022-09-21T22:52:08.789Z,71.50
2022-09-21T22:54:41.747Z,71.58
2022-09-21T22:57:14.752Z,71.51
2022-09-21T22:59:47.855Z,71.41
2022-09-21T23:02:20.871Z,71.40
2022-09-21T23:04:53.708Z,71.34
2022-09-21T23:07:26.680Z,71.33
2022-09-21T23:10:00.172Z,71.40
2022-09-21T23:12:34.100Z,71.47
2022-09-21T23:15:08.648Z,71.51
2022-09-21T23:17:41.663Z,71.58
2022-09-21T23:20:15.797Z,71.67
2022-09-21T23:22:48.731Z,71.70
2022-09-21T23:25:22.251Z,71.91
2022-09-21T23:27:55.852Z,72.03
2022-09-21T23:30:28.741Z,72.05
2022-09-21T23:33:01.652Z,72.27
2022-09-21T23:35:34.630Z,72.43
2022-09-21T23:38:07.382Z,72.46
2022-09-21T23:40:40.292Z,72.49
2022-09-21T23:43:13.268Z,72.55
2022-09-21T23:45:46.132Z,72.51
2022-09-21T23:48:18.961Z,72.53
2022-09-21T23:50:52.277Z,72.81
2022-09-21T23:53:26.553Z,72.85
2022-09-21T23:55:59.981Z,72.95
2022-09-21T23:58:33.319Z,72.81
